Time;durP1;ratioP1;P1;durP2;ratioP2;P2;SDS_P1;SDS_P2;PMS_P1;PMS_P2;Temp;Humidity;BMP_temperature;BMP_pressure;BME280_temperature;BME280_humidity;BME280_pressure;Samples;Min_cycle;Max_cycle;Signal;HPM_P1;HPM_P2
2023/07/25 00:01:12;;;;;;;7.35;5.15;;;28.30;78.60;;;;;;5012459;28;20199;-67
2023/07/25 00:03:39;;;;;;;12.48;5.22;;;28.30;78.60;;;;;;5011306;28;20796;-68
2023/07/25 00:06:05;;;;;;;10.73;5.72;;;28.40;78.10;;;;;;5007584;28;20199;-68
2023/07/25 00:08:32;;;;;;;13.90;5.60;;;28.40;78.40;;;;;;5010783;28;20203;-68
2023/07/25 00:11:00;;;;;;;8.43;5.70;;;28.40;77.80;;;;;;5011238;28;20215;-68
2023/07/25 00:13:27;;;;;;;14.77;6.25;;;28.50;77.60;;;;;;5011121;28;20208;-68
2023/07/25 00:15:54;;;;;;;11.18;5.18;;;28.60;77.40;;;;;;5008888;28;20202;-68
2023/07/25 00:18:20;;;;;;;11.80;5.68;;;28.70;77.20;;;;;;5010206;28;20191;-68
2023/07/25 00:20:46;;;;;;;12.95;6.03;;;28.70;77.10;;;;;;5012485;28;20328;-68
2023/07/25 00:23:13;;;;;;;9.18;5.20;;;28.80;76.80;;;;;;5010209;28;20196;-68
2023/07/25 00:25:39;;;;;;;14.20;6.18;;;28.80;77.30;;;;;;5005179;28;20732;-68
2023/07/25 00:28:05;;;;;;;15.98;5.72;;;28.90;77.50;;;;;;5016284;28;20199;-68
2023/07/25 00:30:32;;;;;;;14.23;5.72;;;28.90;77.60;;;;;;5010537;28;20188;-68
2023/07/25 00:32:58;;;;;;;10.85;5.53;;;28.80;77.60;;;;;;5008127;28;20246;-68
2023/07/25 00:35:24;;;;;;;11.15;6.32;;;28.70;77.80;;;;;;4996418;28;20200;-68
2023/07/25 00:37:50;;;;;;;10.93;5.72;;;28.70;77.70;;;;;;5011115;28;20565;-68
2023/07/25 00:40:17;;;;;;;11.73;6.57;;;28.70;77.20;;;;;;5011101;28;20202;-71
2023/07/25 00:42:43;;;;;;;10.95;5.97;;;28.80;77.20;;;;;;5034094;28;20220;-71
2023/07/25 00:45:10;;;;;;;16.77;6.82;;;28.90;77.10;;;;;;4997857;28;20571;-71
2023/07/25 00:47:36;;;;;;;14.10;7.25;;;28.90;76.40;;;;;;5016806;28;20295;-70
2023/07/25 00:50:03;;;;;;;14.18;6.47;;;29.00;76.40;;;;;;5021509;28;20270;-71
2023/07/25 00:52:30;;;;;;;18.52;7.57;;;29.10;76.50;;;;;;5021848;28;20201;-70
2023/07/25 00:54:56;;;;;;;13.82;6.70;;;29.10;76.90;;;;;;5023006;28;20191;-70
2023/07/25 00:57:22;;;;;;;14.43;6.70;;;29.00;77.20;;;;;;5005510;28;20185;-71
2023/07/25 00:59:48;;;;;;;12.02;6.75;;;29.00;77.00;;;;;;5020639;28;20690;-70
2023/07/25 01:02:16;;;;;;;10.90;6.35;;;29.00;77.00;;;;;;5021542;28;20271;-70
2023/07/25 01:04:43;;;;;;;9.80;6.93;;;29.00;77.30;;;;;;5022731;28;20192;-70
2023/07/25 01:07:15;;;;;;;16.70;6.93;;;29.00;76.90;;;;;;5009678;28;20270;-70
2023/07/25 01:09:44;;;;;;;9.80;6.65;;;29.00;77.20;;;;;;5024214;28;20184;-70
2023/07/25 01:12:12;;;;;;;14.30;7.10;;;28.90;77.30;;;;;;5007863;28;20204;-70
2023/07/25 01:14:40;;;;;;;12.70;6.55;;;28.90;77.10;;;;;;5008770;28;20271;-70
2023/07/25 01:17:23;;;;;;;16.08;7.00;;;28.90;77.00;;;;;;5025959;28;20180;-70
2023/07/25 01:19:50;;;;;;;13.52;6.63;;;28.90;76.70;;;;;;5024079;28;20227;-70
2023/07/25 01:22:18;;;;;;;14.65;7.18;;;28.90;76.80;;;;;;5038914;28;20188;-70
2023/07/25 01:24:48;;;;;;;17.45;7.13;;;28.90;76.60;;;;;;5020929;28;20233;-70
2023/07/25 01:27:16;;;;;;;25.58;7.35;;;28.90;76.70;;;;;;5024153;28;20199;-70
2023/07/25 01:29:42;;;;;;;13.13;7.60;;;29.00;76.00;;;;;;5007556;28;20181;-70
2023/07/25 01:32:09;;;;;;;13.65;7.30;;;29.10;75.70;;;;;;5024109;28;20255;-70
2023/07/25 01:34:38;;;;;;;15.82;7.10;;;29.10;76.10;;;;;;5038175;28;20191;-70
2023/07/25 01:37:06;;;;;;;13.10;6.60;;;29.10;76.40;;;;;;5016523;28;20688;-70
2023/07/25 01:39:33;;;;;;;11.80;6.57;;;29.10;76.60;;;;;;5018764;28;20231;-70
2023/07/25 01:42:00;;;;;;;15.57;7.32;;;29.10;76.90;;;;;;5002095;28;20208;-68
2023/07/25 01:44:26;;;;;;;15.05;7.28;;;29.10;76.60;;;;;;5011590;28;20188;-68
2023/07/25 01:46:57;;;;;;;15.80;7.65;;;29.20;76.60;;;;;;5022710;28;20246;-68
2023/07/25 01:49:23;;;;;;;17.13;7.10;;;29.20;76.70;;;;;;5017689;28;20782;-68
2023/07/25 01:51:49;;;;;;;19.45;7.25;;;29.10;76.90;;;;;;5033053;28;20266;-70
2023/07/25 01:54:16;;;;;;;10.45;6.88;;;29.20;76.80;;;;;;5022523;28;20192;-70
2023/07/25 01:56:43;;;;;;;12.77;7.30;;;29.10;77.00;;;;;;5008547;28;20551;-70
2023/07/25 01:59:09;;;;;;;16.10;7.40;;;29.10;77.00;;;;;;5022822;28;20277;-70
2023/07/25 02:01:36;;;;;;;16.95;7.72;;;29.10;77.00;;;;;;5017532;28;20275;-70
2023/07/25 02:04:02;;;;;;;13.77;7.57;;;29.10;76.90;;;;;;5022144;28;20879;-70
2023/07/25 02:06:28;;;;;;;13.15;7.20;;;29.20;77.40;;;;;;5024128;28;20181;-70
2023/07/25 02:08:54;;;;;;;12.73;7.47;;;29.10;77.40;;;;;;5034852;28;20194;-70
2023/07/25 02:11:21;;;;;;;13.57;7.18;;;29.10;77.80;;;;;;5025441;28;20303;-70
2023/07/25 02:13:47;;;;;;;12.38;7.10;;;29.10;77.10;;;;;;5019983;28;20197;-70
2023/07/25 02:16:13;;;;;;;15.23;7.15;;;29.20;76.90;;;;;;5017843;28;20220;-70
2023/07/25 02:18:39;;;;;;;12.10;6.97;;;29.20;76.60;;;;;;5025504;28;20662;-70
2023/07/25 02:21:06;;;;;;;13.73;7.70;;;29.20;76.20;;;;;;5017684;28;20265;-70
2023/07/25 02:23:32;;;;;;;14.75;6.60;;;29.20;76.30;;;;;;5023506;28;20188;-70
2023/07/25 02:25:58;;;;;;;12.18;7.32;;;29.30;76.20;;;;;;5024438;28;20180;-70
2023/07/25 02:28:24;;;;;;;14.32;7.25;;;29.30;76.10;;;;;;5024004;28;20192;-70
2023/07/25 02:30:51;;;;;;;9.80;6.88;;;29.30;76.90;;;;;;5021149;28;20192;-70
2023/07/25 02:33:17;;;;;;;10.45;6.78;;;29.20;76.80;;;;;;5025378;28;20212;-70
2023/07/25 02:35:43;;;;;;;15.15;6.97;;;29.20;76.70;;;;;;5024365;28;20854;-70
2023/07/25 02:38:09;;;;;;;12.73;6.88;;;29.30;76.70;;;;;;5012691;28;20196;-70
2023/07/25 02:40:36;;;;;;;13.75;7.45;;;29.20;76.90;;;;;;5024821;28;20188;-70
2023/07/25 02:43:07;;;;;;;14.68;7.00;;;29.20;76.70;;;;;;5020852;28;20242;-70
2023/07/25 02:45:34;;;;;;;11.32;6.63;;;29.30;76.90;;;;;;5019199;28;20600;-70
2023/07/25 02:48:00;;;;;;;12.90;7.57;;;29.20;77.00;;;;;;5039617;28;20184;-70
2023/07/25 02:50:27;;;;;;;11.35;6.57;;;29.20;77.10;;;;;;5021639;28;20937;-70
2023/07/25 02:52:53;;;;;;;12.85;7.38;;;29.20;77.00;;;;;;5023568;28;20213;-70
2023/07/25 02:55:19;;;;;;;18.17;7.50;;;29.20;76.70;;;;;;5020768;28;20190;-70
2023/07/25 02:57:46;;;;;;;13.65;7.22;;;29.20;76.80;;;;;;5023833;28;20283;-69
2023/07/25 03:00:14;;;;;;;16.25;7.00;;;29.30;76.80;;;;;;5019714;28;20187;-70
2023/07/25 03:02:40;;;;;;;11.73;6.85;;;29.30;77.00;;;;;;5000642;28;20193;-70
2023/07/25 03:05:07;;;;;;;11.98;7.15;;;29.20;77.30;;;;;;5032878;28;20191;-70
2023/07/25 03:07:34;;;;;;;13.15;6.45;;;29.20;77.40;;;;;;5026978;28;20189;-70
2023/07/25 03:10:00;;;;;;;13.68;6.78;;;29.20;77.80;;;;;;5023280;28;20199;-70
2023/07/25 03:12:26;;;;;;;11.20;7.03;;;29.20;77.70;;;;;;5032187;28;20247;-70
2023/07/25 03:14:52;;;;;;;11.07;6.57;;;29.20;78.10;;;;;;5021603;28;20188;-70
2023/07/25 03:17:19;;;;;;;20.55;6.97;;;29.10;78.40;;;;;;5019965;28;20188;-70
2023/07/25 03:19:45;;;;;;;13.25;6.88;;;29.10;79.00;;;;;;5020996;28;20180;-70
2023/07/25 03:22:11;;;;;;;14.50;6.68;;;29.10;79.30;;;;;;5020469;28;20650;-70
2023/07/25 03:24:37;;;;;;;11.70;6.50;;;29.10;79.50;;;;;;5019789;28;20188;-70
2023/07/25 03:27:04;;;;;;;13.88;6.22;;;29.10;79.40;;;;;;5024323;28;20223;-70
2023/07/25 03:29:30;;;;;;;13.43;6.70;;;29.00;80.00;;;;;;5020156;28;20200;-70
2023/07/25 03:31:56;;;;;;;12.45;6.35;;;29.00;80.30;;;;;;5014500;28;20273;-70
2023/07/25 03:34:23;;;;;;;12.95;6.18;;;29.00;80.60;;;;;;5018608;28;22505;-70
2023/07/25 03:36:49;;;;;;;9.45;6.35;;;29.00;80.70;;;;;;5012089;28;20224;-70
2023/07/25 03:39:15;;;;;;;13.60;6.45;;;28.90;80.60;;;;;;5027264;28;20262;-70
2023/07/25 03:41:41;;;;;;;9.65;6.13;;;28.90;80.70;;;;;;5010900;28;20188;-70
2023/07/25 03:44:07;;;;;;;9.18;5.90;;;28.90;80.60;;;;;;5013069;28;20532;-70
2023/07/25 03:46:33;;;;;;;10.15;6.10;;;28.90;80.80;;;;;;5015123;28;20825;-70
2023/07/25 03:49:00;;;;;;;14.07;6.20;;;28.90;80.40;;;;;;5017914;28;20185;-70
2023/07/25 03:51:26;;;;;;;9.98;6.28;;;28.90;80.60;;;;;;5012241;28;20194;-70
2023/07/25 03:53:52;;;;;;;9.32;6.25;;;28.90;80.80;;;;;;5014783;28;20271;-70
2023/07/25 03:56:19;;;;;;;10.13;6.20;;;28.80;80.90;;;;;;5010811;28;20184;-70
2023/07/25 03:58:45;;;;;;;16.83;6.18;;;28.80;81.30;;;;;;5010554;28;20187;-70
2023/07/25 04:01:11;;;;;;;9.95;6.32;;;28.80;81.60;;;;;;5011722;28;20466;-70
2023/07/25 04:03:37;;;;;;;11.85;6.38;;;28.80;82.20;;;;;;4998332;28;20192;-69
2023/07/25 04:06:03;;;;;;;10.50;6.25;;;28.80;82.50;;;;;;5011103;28;20188;-69
2023/07/25 04:08:30;;;;;;;9.02;6.15;;;28.80;82.70;;;;;;5011299;28;20192;-69
2023/07/25 04:10:56;;;;;;;14.23;6.35;;;28.80;82.30;;;;;;5012299;28;20200;-69
2023/07/25 04:13:22;;;;;;;9.80;6.15;;;28.70;82.30;;;;;;5016845;28;20215;-70
2023/07/25 04:15:48;;;;;;;10.45;5.75;;;28.70;83.10;;;;;;5018118;28;20184;-70
2023/07/25 04:18:14;;;;;;;9.93;6.45;;;28.70;83.40;;;;;;5014289;28;20188;-69
2023/07/25 04:20:41;;;;;;;12.10;6.47;;;28.60;83.40;;;;;;5014471;28;20659;-69
2023/07/25 04:23:07;;;;;;;9.20;6.15;;;28.60;83.50;;;;;;5017611;28;20207;-74
2023/07/25 04:25:33;;;;;;;12.15;6.72;;;28.60;84.20;;;;;;4995614;28;20901;-70
2023/07/25 04:27:59;;;;;;;9.98;6.13;;;28.60;84.10;;;;;;5019743;28;20199;-70
2023/07/25 04:30:26;;;;;;;9.68;6.22;;;28.60;85.70;;;;;;5014543;28;20188;-70
2023/07/25 04:32:52;;;;;;;9.48;6.35;;;28.60;85.30;;;;;;5018359;28;20289;-70
2023/07/25 04:35:18;;;;;;;17.17;6.47;;;28.60;85.40;;;;;;5018924;28;20180;-70
2023/07/25 04:37:44;;;;;;;16.35;6.30;;;28.60;85.50;;;;;;5021935;28;20238;-70
2023/07/25 04:40:11;;;;;;;13.27;6.30;;;28.70;85.20;;;;;;5020179;28;20199;-70
2023/07/25 04:42:37;;;;;;;11.70;6.50;;;28.70;85.50;;;;;;5019266;28;20199;-70
2023/07/25 04:45:04;;;;;;;11.15;6.53;;;28.70;86.00;;;;;;5022503;28;20208;-70
2023/07/25 04:47:31;;;;;;;13.93;5.80;;;28.70;86.70;;;;;;5017403;28;20204;-70
2023/07/25 04:49:57;;;;;;;16.15;6.35;;;28.70;85.80;;;;;;5016435;28;20192;-70
2023/07/25 04:52:23;;;;;;;15.07;6.35;;;28.80;84.80;;;;;;5018759;28;20216;-70
2023/07/25 04:54:50;;;;;;;16.20;5.97;;;28.90;84.70;;;;;;5019560;28;20188;-70
2023/07/25 04:57:17;;;;;;;9.85;6.03;;;28.90;84.80;;;;;;5021543;28;20196;-70
2023/07/25 04:59:43;;;;;;;10.10;6.40;;;28.90;85.90;;;;;;5024941;28;21073;-70
2023/07/25 05:02:09;;;;;;;13.48;6.32;;;29.00;85.80;;;;;;5024047;28;20566;-70
2023/07/25 05:04:35;;;;;;;15.30;6.90;;;29.10;85.20;;;;;;5024540;28;20271;-70
2023/07/25 05:07:02;;;;;;;10.90;6.47;;;29.20;85.40;;;;;;5009101;28;20211;-70
2023/07/25 05:09:28;;;;;;;12.57;6.15;;;29.20;86.30;;;;;;5023682;28;20219;-70
2023/07/25 05:11:54;;;;;;;11.10;7.05;;;29.20;86.50;;;;;;5022635;28;20204;-70
2023/07/25 05:14:20;;;;;;;15.68;7.03;;;29.20;87.30;;;;;;5023980;28;20188;-70
2023/07/25 05:16:47;;;;;;;15.43;6.82;;;29.30;88.30;;;;;;5031519;28;20788;-70
2023/07/25 05:19:13;;;;;;;12.55;6.60;;;29.20;88.10;;;;;;5023925;28;20765;-70
2023/07/25 05:21:39;;;;;;;12.55;6.85;;;29.30;88.40;;;;;;5023046;28;20439;-70
2023/07/25 05:24:06;;;;;;;14.45;6.68;;;29.30;88.60;;;;;;5025460;28;20219;-70
2023/07/25 05:26:32;;;;;;;17.40;6.32;;;29.40;88.00;;;;;;5016637;28;20193;-70
2023/07/25 05:28:58;;;;;;;15.52;6.85;;;29.40;88.00;;;;;;5022525;28;20299;-70
2023/07/25 05:31:24;;;;;;;10.15;6.45;;;29.50;88.60;;;;;;5021532;28;20180;-70
2023/07/25 05:33:50;;;;;;;15.68;6.57;;;29.50;89.50;;;;;;5018575;28;20915;-70
2023/07/25 05:36:17;;;;;;;12.23;7.03;;;29.50;89.40;;;;;;5023130;28;20267;-70
2023/07/25 05:38:43;;;;;;;13.45;6.10;;;29.50;89.30;;;;;;5024366;28;20192;-70
2023/07/25 05:41:09;;;;;;;13.77;6.78;;;29.50;86.90;;;;;;5023924;28;20196;-70
2023/07/25 05:43:35;;;;;;;9.10;6.30;;;29.60;86.30;;;;;;5029659;28;20765;-70
2023/07/25 05:46:01;;;;;;;15.45;6.50;;;29.60;87.00;;;;;;5009824;28;20531;-70
2023/07/25 05:48:28;;;;;;;10.57;6.40;;;29.60;86.10;;;;;;5022536;28;20184;-70
2023/07/25 05:50:54;;;;;;;11.23;6.00;;;29.70;83.90;;;;;;5019523;28;20208;-70
2023/07/25 05:53:20;;;;;;;12.30;5.95;;;29.80;84.40;;;;;;5023549;28;20251;-70
2023/07/25 05:55:47;;;;;;;12.77;6.03;;;29.80;85.50;;;;;;5031333;28;20192;-70
2023/07/25 05:58:18;;;;;;;13.95;6.25;;;29.90;85.30;;;;;;5020734;28;20603;-70
2023/07/25 06:00:45;;;;;;;10.93;5.72;;;29.90;85.40;;;;;;5035442;28;20184;-70
2023/07/25 06:03:13;;;;;;;10.70;5.80;;;30.00;83.70;;;;;;5016941;28;20188;-70
2023/07/25 06:05:40;;;;;;;14.35;6.40;;;30.00;84.50;;;;;;5029194;28;20189;-70
2023/07/25 06:08:07;;;;;;;12.02;6.20;;;30.10;83.90;;;;;;5024511;28;20283;-70
2023/07/25 06:10:35;;;;;;;17.02;6.07;;;30.10;83.00;;;;;;5033064;28;20196;-70
2023/07/25 06:13:04;;;;;;;10.77;5.88;;;30.20;82.90;;;;;;5020327;28;20211;-70
2023/07/25 06:15:34;;;;;;;9.40;5.80;;;30.20;81.80;;;;;;5036822;28;20184;-70
2023/07/25 06:18:04;;;;;;;11.65;6.13;;;30.30;82.70;;;;;;5023861;28;20184;-70
2023/07/25 06:20:34;;;;;;;13.32;6.07;;;30.40;80.80;;;;;;5002805;28;20645;-70
2023/07/25 06:23:02;;;;;;;8.88;5.40;;;30.40;80.40;;;;;;5022443;28;20192;-70
2023/07/25 06:25:28;;;;;;;7.88;5.78;;;30.60;80.40;;;;;;5021023;28;20290;-70
2023/07/25 06:27:55;;;;;;;8.00;5.85;;;30.60;82.30;;;;;;5021885;28;20307;-70
2023/07/25 06:30:37;;;;;;;10.30;5.43;;;30.70;80.80;;;;;;5022912;28;20867;-70
2023/07/25 06:33:04;;;;;;;8.82;5.90;;;30.80;80.50;;;;;;5022219;28;20243;-70
2023/07/25 06:35:30;;;;;;;6.80;5.35;;;30.80;80.90;;;;;;5024039;28;20651;-70
2023/07/25 06:37:57;;;;;;;8.18;5.97;;;30.80;80.60;;;;;;5021264;28;20405;-70
2023/07/25 06:40:23;;;;;;;8.77;5.60;;;30.90;80.00;;;;;;5020462;28;20848;-70
2023/07/25 06:42:49;;;;;;;12.05;5.50;;;30.90;79.70;;;;;;5020910;28;20890;-70
2023/07/25 06:45:15;;;;;;;11.40;5.80;;;31.00;80.60;;;;;;5018070;28;20227;-70
2023/07/25 06:47:42;;;;;;;8.00;5.10;;;31.00;78.30;;;;;;5023106;28;20192;-70
2023/07/25 06:50:08;;;;;;;8.50;5.38;;;31.10;77.50;;;;;;5015651;28;20545;-70
2023/07/25 06:52:34;;;;;;;9.95;5.28;;;31.20;79.60;;;;;;5023186;28;20208;-70
2023/07/25 06:55:01;;;;;;;8.73;4.97;;;31.30;78.70;;;;;;5020371;28;20555;-70
2023/07/25 06:57:28;;;;;;;8.23;5.05;;;31.30;76.60;;;;;;5015814;28;20192;-70
2023/07/25 06:59:55;;;;;;;8.57;4.82;;;31.40;75.40;;;;;;5016217;28;20181;-68
2023/07/25 07:02:22;;;;;;;7.50;5.05;;;31.50;74.60;;;;;;5028804;28;20227;-68
2023/07/25 07:04:48;;;;;;;8.02;4.88;;;31.60;75.40;;;;;;5016291;28;20227;-68
2023/07/25 07:07:14;;;;;;;9.80;4.55;;;31.70;74.80;;;;;;5014925;28;20317;-68
2023/07/25 07:09:41;;;;;;;9.80;5.15;;;31.70;74.60;;;;;;5009525;28;20227;-69
2023/07/25 07:12:08;;;;;;;10.40;5.10;;;31.90;74.00;;;;;;5010884;28;20267;-69
2023/07/25 07:14:34;;;;;;;6.25;4.53;;;32.00;74.50;;;;;;5015378;28;20198;-69
2023/07/25 07:17:01;;;;;;;9.50;4.70;;;32.10;72.40;;;;;;5014782;28;20189;-68
2023/07/25 07:19:27;;;;;;;12.27;4.70;;;32.10;73.10;;;;;;5017460;28;20285;-69
2023/07/25 07:21:54;;;;;;;8.07;5.18;;;32.20;73.60;;;;;;5012944;28;20655;-68
2023/07/25 07:24:20;;;;;;;7.57;4.82;;;32.30;73.20;;;;;;5015996;28;20181;-68
2023/07/25 07:26:46;;;;;;;6.82;5.05;;;32.40;73.30;;;;;;5015059;28;20211;-68
2023/07/25 07:29:13;;;;;;;7.93;4.80;;;32.50;72.40;;;;;;4998773;28;20188;-68
2023/07/25 07:31:39;;;;;;;8.02;4.85;;;32.60;72.90;;;;;;5013145;28;20546;-68
2023/07/25 07:34:15;;;;;;;8.52;4.68;;;32.70;72.30;;;;;;5016332;28;20196;-68
2023/07/25 07:36:45;;;;;;;9.23;5.40;;;32.70;72.30;;;;;;5014937;28;20706;-69
2023/07/25 07:39:11;;;;;;;8.00;5.20;;;32.80;71.80;;;;;;5014364;28;20192;-69
2023/07/25 07:41:39;;;;;;;11.93;4.70;;;33.10;70.20;;;;;;5015851;28;20230;-69
2023/07/25 07:44:05;;;;;;;10.00;5.05;;;33.10;72.00;;;;;;5014837;28;20265;-69
2023/07/25 07:46:34;;;;;;;8.57;4.50;;;33.30;70.50;;;;;;5014743;28;20176;-69
2023/07/25 07:49:01;;;;;;;6.13;4.35;;;33.50;69.10;;;;;;5014630;28;20655;-69
2023/07/25 07:51:28;;;;;;;7.43;4.45;;;33.50;69.30;;;;;;5017458;28;20188;-69
2023/07/25 07:53:54;;;;;;;6.20;4.88;;;33.60;69.40;;;;;;5017222;28;20211;-69
2023/07/25 07:56:20;;;;;;;7.50;4.50;;;33.70;68.50;;;;;;5010932;28;20220;-69
2023/07/25 07:58:47;;;;;;;6.85;4.40;;;33.80;68.90;;;;;;5014158;28;20182;-69
2023/07/25 08:01:18;;;;;;;6.35;4.88;;;33.80;68.80;;;;;;5012637;28;20279;-69
2023/07/25 08:03:45;;;;;;;11.15;4.82;;;33.80;67.90;;;;;;5011730;28;20187;-69
2023/07/25 08:06:13;;;;;;;6.35;5.07;;;33.90;66.90;;;;;;5013738;28;20192;-69
2023/07/25 08:08:41;;;;;;;7.10;4.88;;;34.10;66.40;;;;;;5018899;28;20647;-69
2023/07/25 08:11:09;;;;;;;10.30;5.00;;;34.10;67.40;;;;;;5012922;28;20196;-69
2023/07/25 08:13:35;;;;;;;8.00;5.07;;;34.20;67.90;;;;;;5020543;28;20215;-69
2023/07/25 08:16:01;;;;;;;10.27;5.00;;;34.30;67.40;;;;;;5019884;28;20823;-69
2023/07/25 08:18:28;;;;;;;7.63;4.72;;;34.40;67.40;;;;;;5017643;28;20272;-69
2023/07/25 08:20:59;;;;;;;7.45;4.75;;;34.50;65.90;;;;;;5017665;28;20185;-69
2023/07/25 08:23:26;;;;;;;6.85;4.50;;;34.50;65.20;;;;;;5014931;28;20312;-69
2023/07/25 08:25:55;;;;;;;8.55;5.20;;;34.70;66.30;;;;;;5020410;28;20570;-69
2023/07/25 08:28:22;;;;;;;8.52;4.63;;;34.90;65.20;;;;;;5018104;28;20214;-69
2023/07/25 08:30:48;;;;;;;6.57;4.60;;;35.00;65.80;;;;;;5017597;28;20431;-69
2023/07/25 08:33:18;;;;;;;8.38;5.22;;;35.00;65.20;;;;;;5021634;28;20227;-69
2023/07/25 08:35:47;;;;;;;8.35;4.60;;;35.20;65.60;;;;;;5016577;28;20216;-69
2023/07/25 08:38:13;;;;;;;6.85;4.57;;;35.20;65.50;;;;;;5009615;28;20188;-69
2023/07/25 08:40:41;;;;;;;7.25;5.68;;;35.30;66.40;;;;;;5019479;28;20227;-69
2023/07/25 08:43:11;;;;;;;8.85;4.68;;;35.50;65.40;;;;;;5030843;28;20197;-69
2023/07/25 08:45:40;;;;;;;6.78;4.97;;;35.70;65.40;;;;;;5016257;28;20192;-69
2023/07/25 08:48:12;;;;;;;7.82;5.47;;;35.80;64.40;;;;;;5019337;28;20271;-69
2023/07/25 08:50:45;;;;;;;6.90;5.30;;;36.00;64.00;;;;;;5035327;28;20279;-69
2023/07/25 08:53:15;;;;;;;15.95;5.00;;;36.10;64.70;;;;;;5019748;28;20655;-69
2023/07/25 08:55:41;;;;;;;7.88;4.60;;;36.20;63.30;;;;;;5022543;28;20191;-69
2023/07/25 08:58:09;;;;;;;11.20;4.68;;;36.30;62.70;;;;;;5017610;28;20184;-69
2023/07/25 09:00:35;;;;;;;8.38;4.72;;;36.30;63.10;;;;;;5015163;28;20550;-69
2023/07/25 09:03:03;;;;;;;21.67;5.13;;;36.40;62.40;;;;;;4999318;28;20180;-69
2023/07/25 09:05:30;;;;;;;10.32;4.43;;;36.50;62.20;;;;;;5026231;28;21755;-69
2023/07/25 09:07:58;;;;;;;5.60;4.53;;;36.70;61.90;;;;;;5014913;28;20185;-69
2023/07/25 09:10:29;;;;;;;15.43;5.40;;;36.90;61.40;;;;;;5016106;28;20193;-69
2023/07/25 09:12:56;;;;;;;8.15;4.57;;;36.80;60.30;;;;;;5014162;28;20211;-69
2023/07/25 09:15:23;;;;;;;10.75;4.97;;;36.70;60.00;;;;;;5018684;28;20651;-69
2023/07/25 09:17:53;;;;;;;8.50;5.28;;;36.80;60.50;;;;;;5021402;28;20187;-69
2023/07/25 09:20:20;;;;;;;6.63;5.35;;;36.90;60.60;;;;;;5016075;28;20227;-69
2023/07/25 09:22:48;;;;;;;6.97;4.97;;;37.00;60.30;;;;;;5018159;28;20184;-69
2023/07/25 09:25:15;;;;;;;17.75;5.53;;;37.20;61.80;;;;;;5029308;28;20732;-69
2023/07/25 09:27:54;;;;;;;12.18;5.38;;;37.40;60.00;;;;;;5020389;28;20255;-69
2023/07/25 09:30:27;;;;;;;11.23;4.90;;;37.50;60.90;;;;;;5013504;28;20196;-69
2023/07/25 09:32:54;;;;;;;9.18;5.68;;;37.60;60.80;;;;;;5021126;28;20208;-69
2023/07/25 09:35:23;;;;;;;8.55;5.10;;;37.60;59.90;;;;;;5017070;28;20176;-69
2023/07/25 09:37:56;;;;;;;8.68;5.38;;;37.60;60.70;;;;;;5018993;28;20849;-69
2023/07/25 09:40:22;;;;;;;9.95;5.10;;;37.60;60.90;;;;;;5015377;28;20310;-69
2023/07/25 09:42:51;;;;;;;14.32;5.28;;;37.70;60.10;;;;;;5000801;28;20188;-69
2023/07/25 09:45:18;;;;;;;8.45;5.75;;;38.00;60.50;;;;;;5014997;28;20196;-69
2023/07/25 09:47:50;;;;;;;10.05;5.10;;;38.10;59.30;;;;;;5016095;28;20860;-69
2023/07/25 09:50:17;;;;;;;7.40;5.07;;;38.20;60.60;;;;;;5020520;28;20192;-69
2023/07/25 09:52:43;;;;;;;12.63;5.25;;;38.20;61.30;;;;;;5020243;28;20215;-69
2023/07/25 09:55:10;;;;;;;9.65;5.35;;;38.20;59.80;;;;;;5023118;28;20192;-69
2023/07/25 09:57:36;;;;;;;9.00;5.47;;;38.20;59.20;;;;;;5013592;28;20406;-69
2023/07/25 10:00:05;;;;;;;9.88;5.20;;;38.30;59.90;;;;;;5016102;28;20184;-69
2023/07/25 10:02:33;;;;;;;10.05;5.25;;;38.20;59.80;;;;;;5015966;28;20303;-69
2023/07/25 10:05:02;;;;;;;8.35;5.50;;;38.30;59.50;;;;;;5015051;28;20192;-69
2023/07/25 10:07:33;;;;;;;12.45;5.28;;;38.30;60.00;;;;;;5018373;28;20200;-69
2023/07/25 10:10:02;;;;;;;5.75;4.50;;;38.10;59.80;;;;;;5013493;28;20566;-69
2023/07/25 10:12:29;;;;;;;8.18;5.70;;;38.00;60.40;;;;;;5013741;28;20307;-69
2023/07/25 10:14:56;;;;;;;11.18;5.72;;;37.90;59.90;;;;;;5012630;28;20192;-69
2023/07/25 10:17:25;;;;;;;12.70;5.32;;;38.00;59.70;;;;;;5016878;28;20188;-69
2023/07/25 10:19:54;;;;;;;11.80;5.80;;;38.00;59.90;;;;;;5011408;28;20193;-69
2023/07/25 10:22:40;;;;;;;7.30;5.35;;;37.80;60.00;;;;;;5012165;28;20203;-69
2023/07/25 10:25:27;;;;;;;9.07;5.35;;;37.80;60.00;;;;;;5027915;28;20200;-69
2023/07/25 10:28:04;;;;;;;11.05;5.53;;;37.90;60.20;;;;;;5019042;28;20189;-69
2023/07/25 10:30:39;;;;;;;8.90;5.40;;;38.00;60.90;;;;;;5007282;28;20262;-69
2023/07/25 10:33:08;;;;;;;13.55;5.80;;;38.10;60.80;;;;;;5007583;28;20951;-70
2023/07/25 10:35:55;;;;;;;13.57;5.97;;;37.90;60.40;;;;;;5011548;28;20615;-69
2023/07/25 10:38:40;;;;;;;9.60;5.47;;;37.80;60.90;;;;;;5016574;28;20196;-70
2023/07/25 10:41:18;;;;;;;9.27;5.57;;;37.60;60.10;;;;;;5016907;28;20212;-69
2023/07/25 10:43:48;;;;;;;7.10;4.88;;;37.50;60.80;;;;;;5018262;28;20199;-69
2023/07/25 10:46:21;;;;;;;8.32;4.88;;;37.50;61.00;;;;;;5013846;28;20227;-69
2023/07/25 10:48:53;;;;;;;11.38;4.60;;;37.40;61.40;;;;;;5017894;28;20196;-69
2023/07/25 10:51:21;;;;;;;9.05;5.10;;;37.20;62.10;;;;;;5015402;28;20189;-69
2023/07/25 10:54:12;;;;;;;8.13;4.63;;;37.20;61.90;;;;;;5020069;28;20228;-69
2023/07/25 10:56:39;;;;;;;9.70;4.88;;;37.40;62.10;;;;;;5014183;28;20821;-69
2023/07/25 10:59:11;;;;;;;14.25;4.72;;;37.30;59.90;;;;;;5014903;28;20718;-69
2023/07/25 11:01:48;;;;;;;8.88;4.28;;;37.10;60.80;;;;;;5018415;28;20192;-69
2023/07/25 11:04:31;;;;;;;6.93;4.75;;;37.00;59.80;;;;;;5015132;28;20188;-69
2023/07/25 11:07:12;;;;;;;7.15;4.85;;;36.90;60.40;;;;;;5010069;28;20192;-69
2023/07/25 11:09:45;;;;;;;7.10;4.30;;;37.00;60.20;;;;;;5010180;28;20188;-69
2023/07/25 11:12:13;;;;;;;7.57;4.70;;;37.00;60.80;;;;;;5015365;28;20556;-69
2023/07/25 11:14:44;;;;;;;10.43;4.75;;;37.00;61.70;;;;;;5007543;28;20268;-69
2023/07/25 11:17:14;;;;;;;8.32;4.20;;;37.00;60.90;;;;;;5016232;28;20191;-69
2023/07/25 11:19:40;;;;;;;12.00;4.55;;;36.90;60.30;;;;;;5017844;28;20193;-69
2023/07/25 11:22:11;;;;;;;6.00;4.20;;;36.80;60.30;;;;;;5015978;28;20254;-69
2023/07/25 11:24:48;;;;;;;6.35;3.95;;;36.80;60.40;;;;;;5013798;28;20262;-69
2023/07/25 11:27:15;;;;;;;10.15;4.05;;;36.70;60.80;;;;;;5015529;28;20222;-70
2023/07/25 11:29:41;;;;;;;9.23;4.43;;;36.60;60.50;;;;;;5013423;28;20211;-69
2023/07/25 11:32:08;;;;;;;5.22;3.88;;;36.60;61.00;;;;;;5009613;28;20262;-69
2023/07/25 11:34:34;;;;;;;9.57;4.18;;;36.50;60.60;;;;;;5007320;28;20200;-70
2023/07/25 11:37:08;;;;;;;7.30;4.30;;;36.50;61.10;;;;;;5012734;28;20259;-69
2023/07/25 11:39:35;;;;;;;5.22;4.13;;;36.50;60.70;;;;;;5013026;28;20286;-69
2023/07/25 11:42:01;;;;;;;7.07;3.63;;;36.40;60.60;;;;;;5009726;28;20571;-69
2023/07/25 11:44:28;;;;;;;5.53;3.88;;;36.40;65.70;;;;;;5014881;28;20283;-69
2023/07/25 11:46:56;;;;;;;5.50;3.70;;;36.30;64.40;;;;;;5012675;28;20191;-69
2023/07/25 11:49:23;;;;;;;6.88;3.60;;;36.30;63.90;;;;;;5013210;28;20195;-69
2023/07/25 11:51:52;;;;;;;4.38;3.45;;;36.40;64.30;;;;;;5014364;28;20951;-69
2023/07/25 11:54:19;;;;;;;5.07;3.63;;;36.30;63.70;;;;;;5012346;28;20189;-69
2023/07/25 11:56:45;;;;;;;13.90;4.05;;;36.30;67.80;;;;;;5016037;28;20598;-69
2023/07/25 11:59:13;;;;;;;5.68;3.55;;;36.20;78.00;;;;;;5014249;28;20199;-69
2023/07/25 12:01:39;;;;;;;7.05;3.67;;;36.10;80.30;;;;;;4997565;28;20199;-69
2023/07/25 12:04:15;;;;;;;7.22;3.45;;;36.10;79.50;;;;;;5014011;28;20733;-69
2023/07/25 12:06:42;;;;;;;8.95;4.57;;;36.10;82.80;;;;;;5010543;28;20195;-69
2023/07/25 12:09:08;;;;;;;6.80;4.07;;;35.90;86.40;;;;;;4997746;28;20200;-69
2023/07/25 12:11:44;;;;;;;6.22;4.20;;;35.80;87.50;;;;;;5015106;28;20567;-69
2023/07/25 12:14:12;;;;;;;10.95;5.00;;;35.50;89.60;;;;;;5033078;28;20208;-69
2023/07/25 12:16:45;;;;;;;7.22;4.25;;;35.50;90.00;;;;;;5018411;28;20192;-69
2023/07/25 12:19:14;;;;;;;11.25;4.55;;;35.40;89.80;;;;;;5015901;28;20181;-69
2023/07/25 12:21:44;;;;;;;11.65;4.78;;;35.30;90.80;;;;;;5015916;28;20642;-69
2023/07/25 12:24:15;;;;;;;10.85;4.63;;;35.20;90.60;;;;;;5022054;28;20184;-69
2023/07/25 12:26:51;;;;;;;9.50;4.70;;;35.20;91.80;;;;;;5031146;28;20276;-69
2023/07/25 12:29:24;;;;;;;11.10;4.70;;;35.10;91.20;;;;;;5024920;28;20187;-69
2023/07/25 12:31:52;;;;;;;8.63;4.40;;;35.00;91.70;;;;;;5019540;28;20276;-69
2023/07/25 12:34:20;;;;;;;6.40;4.18;;;34.80;91.90;;;;;;5016340;28;20647;-69
2023/07/25 12:36:51;;;;;;;8.25;4.20;;;34.70;91.50;;;;;;5017977;28;20176;-69
2023/07/25 12:39:17;;;;;;;9.73;4.22;;;34.80;90.40;;;;;;5015510;28;20203;-69
2023/07/25 12:41:46;;;;;;;8.60;4.50;;;34.80;91.20;;;;;;5019367;28;20736;-69
2023/07/25 12:44:15;;;;;;;9.43;4.75;;;34.80;90.20;;;;;;5032999;28;20243;-69